EZY69RP EGPH-LKPR
Flight info
| Callsign | EZY69RP |
|---|---|
| Flight time | 2h 3m |
| Altitude | 25000 |
| Route | TLA Y96 OTBUN/N0428F390 DCT NATEB DCT TOWTE DCT BAZNA DCT ROLUM DCT RENEQ DCT AGISU DCT OMEPA DCT POVEL DCT OSTRA Z21 DRN T620 LALUK DCT GOLOP |
| Aircraft | A20N/M-SDE2E3FGHIRWXY/LB1 |
Departure
| Time | 2026-04-25 19:59 |
|---|---|
| Airport | Edinburgh Airport (EGPH) |
Arrival
| Time | 2026-04-25 22:03 |
|---|---|
| Airport | Václav Havel Airport Prague (LKPR) |
| Time | Latitude | Longitude | Altitude | Speed | Heading |
|---|---|---|---|---|---|
| 2026-04-25 19:30 | 55.94850 | -3.35873 | 112 ft | 0 kts | 209° |
| 2026-04-25 19:44 | 55.94853 | -3.35871 | 112 ft | 2 kts | 208° |
| 2026-04-25 19:44 | 55.94858 | -3.35866 | 110 ft | 0 kts | 208° |
| 2026-04-25 19:47 | 55.94871 | -3.35854 | 108 ft | 2 kts | 208° |
| 2026-04-25 19:47 | 55.94885 | -3.35840 | 109 ft | 2 kts | 209° |
| 2026-04-25 19:48 | 55.94899 | -3.35824 | 110 ft | 2 kts | 229° |
| 2026-04-25 19:48 | 55.94907 | -3.35799 | 109 ft | 2 kts | 269° |
| 2026-04-25 19:48 | 55.94906 | -3.35770 | 110 ft | 2 kts | 298° |
| 2026-04-25 19:48 | 55.94899 | -3.35748 | 111 ft | 1 kts | 298° |
| 2026-04-25 19:49 | 55.94898 | -3.35744 | 112 ft | 0 kts | 298° |
| 2026-04-25 19:50 | 55.94899 | -3.35746 | 112 ft | 1 kts | 298° |
| 2026-04-25 19:50 | 55.94922 | -3.35821 | 110 ft | 12 kts | 303° |
| 2026-04-25 19:51 | 55.95002 | -3.35845 | 110 ft | 14 kts | 28° |
| 2026-04-25 19:51 | 55.95057 | -3.35880 | 109 ft | 9 kts | 299° |
| 2026-04-25 19:51 | 55.95094 | -3.35999 | 110 ft | 13 kts | 293° |
| 2026-04-25 19:51 | 55.95124 | -3.36153 | 111 ft | 11 kts | 287° |
| 2026-04-25 19:52 | 55.95129 | -3.36310 | 112 ft | 14 kts | 238° |
| 2026-04-25 19:52 | 55.95066 | -3.36481 | 112 ft | 18 kts | 238° |
| 2026-04-25 19:52 | 55.94993 | -3.36698 | 109 ft | 22 kts | 239° |
| 2026-04-25 19:52 | 55.94907 | -3.36955 | 112 ft | 26 kts | 238° |
| 2026-04-25 19:53 | 55.94828 | -3.37186 | 110 ft | 23 kts | 238° |
| 2026-04-25 19:53 | 55.94738 | -3.37448 | 112 ft | 26 kts | 239° |
| 2026-04-25 19:53 | 55.94640 | -3.37743 | 113 ft | 29 kts | 239° |
| 2026-04-25 19:53 | 55.94544 | -3.38029 | 111 ft | 24 kts | 239° |
| 2026-04-25 19:54 | 55.94449 | -3.38306 | 111 ft | 27 kts | 238° |
| 2026-04-25 19:54 | 55.94370 | -3.38538 | 113 ft | 16 kts | 238° |
| 2026-04-25 19:54 | 55.94312 | -3.38712 | 115 ft | 18 kts | 239° |
| 2026-04-25 19:54 | 55.94290 | -3.38776 | 114 ft | 19 kts | 239° |
| 2026-04-25 19:55 | 55.94320 | -3.38901 | 114 ft | 5 kts | 331° |
| 2026-04-25 19:55 | 55.94320 | -3.38902 | 114 ft | 0 kts | 331° |
| 2026-04-25 19:57 | 55.94351 | -3.38932 | 112 ft | 10 kts | 331° |
| 2026-04-25 19:58 | 55.94425 | -3.38945 | 113 ft | 9 kts | 51° |
| 2026-04-25 19:58 | 55.94445 | -3.38888 | 115 ft | 0 kts | 59° |
| 2026-04-25 19:58 | 55.94466 | -3.38824 | 115 ft | 32 kts | 59° |
| 2026-04-25 19:59 | 55.94744 | -3.38004 | 116 ft | 118 kts | 59° |
| 2026-04-25 19:59 | 55.95271 | -3.36438 | 337 ft | 161 kts | 59° |
| 2026-04-25 19:59 | 55.95865 | -3.34681 | 1140 ft | 173 kts | 59° |
| 2026-04-25 19:59 | 55.96674 | -3.33027 | 2084 ft | 185 kts | 46° |
| 2026-04-25 20:00 | 55.97694 | -3.31427 | 2688 ft | 209 kts | 43° |
| 2026-04-25 20:00 | 55.98079 | -3.30829 | 2861 ft | 219 kts | 43° |
| 2026-04-25 20:00 | 56.00181 | -3.27530 | 3874 ft | 263 kts | 41° |
| 2026-04-25 20:00 | 56.01570 | -3.25308 | 4827 ft | 272 kts | 41° |
| 2026-04-25 20:01 | 56.04412 | -3.20718 | 7078 ft | 278 kts | 41° |
| 2026-04-25 20:01 | 56.05523 | -3.17858 | 8050 ft | 288 kts | 71° |
| 2026-04-25 20:01 | 56.05749 | -3.14281 | 9054 ft | 294 kts | 92° |
| 2026-04-25 20:02 | 56.05432 | -3.10657 | 10089 ft | 298 kts | 112° |
| 2026-04-25 20:02 | 56.04329 | -3.07514 | 10887 ft | 307 kts | 136° |
| 2026-04-25 20:02 | 56.02589 | -3.05103 | 11332 ft | 328 kts | 149° |
| 2026-04-25 20:02 | 56.00600 | -3.02842 | 11833 ft | 346 kts | 149° |
| 2026-04-25 20:03 | 55.98583 | -3.00448 | 12766 ft | 350 kts | 147° |
| 2026-04-25 20:03 | 55.96502 | -2.98173 | 13690 ft | 352 kts | 160° |
| 2026-04-25 20:03 | 55.94127 | -2.97180 | 14554 ft | 352 kts | 177° |
| 2026-04-25 20:03 | 55.91670 | -2.97085 | 15361 ft | 355 kts | 184° |
| 2026-04-25 20:04 | 55.89188 | -2.97289 | 16191 ft | 358 kts | 185° |
| 2026-04-25 20:04 | 55.86684 | -2.97538 | 16993 ft | 363 kts | 185° |
| 2026-04-25 20:04 | 55.84146 | -2.97752 | 17786 ft | 367 kts | 184° |
| 2026-04-25 20:04 | 55.81575 | -2.97921 | 18564 ft | 372 kts | 184° |
| 2026-04-25 20:05 | 55.78974 | -2.98060 | 19243 ft | 376 kts | 183° |
| 2026-04-25 20:05 | 55.76377 | -2.98187 | 19910 ft | 380 kts | 183° |
| 2026-04-25 20:05 | 55.73724 | -2.98313 | 20579 ft | 384 kts | 184° |
| 2026-04-25 20:05 | 55.71036 | -2.98442 | 21254 ft | 388 kts | 184° |
| 2026-04-25 20:06 | 55.68325 | -2.98572 | 21923 ft | 392 kts | 184° |
| 2026-04-25 20:06 | 55.65888 | -2.98478 | 22483 ft | 398 kts | 174° |
| 2026-04-25 20:06 | 55.63197 | -2.97181 | 23115 ft | 407 kts | 159° |
| 2026-04-25 20:06 | 55.60748 | -2.94598 | 23717 ft | 415 kts | 143° |
| 2026-04-25 20:07 | 55.58734 | -2.90902 | 24273 ft | 422 kts | 127° |
| 2026-04-25 20:07 | 55.57306 | -2.86350 | 24856 ft | 426 kts | 112° |
| 2026-04-25 20:07 | 55.56523 | -2.81308 | 25190 ft | 430 kts | 101° |
| 2026-04-25 20:07 | 55.56064 | -2.76062 | 25286 ft | 430 kts | 99° |
| 2026-04-25 20:08 | 55.55578 | -2.70857 | 25298 ft | 430 kts | 101° |
| 2026-04-25 20:08 | 55.54971 | -2.65691 | 25297 ft | 429 kts | 104° |
| 2026-04-25 20:08 | 55.54264 | -2.60555 | 25519 ft | 432 kts | 105° |
| 2026-04-25 20:08 | 55.53503 | -2.55452 | 26172 ft | 431 kts | 106° |
| 2026-04-25 20:09 | 55.52716 | -2.50336 | 26726 ft | 433 kts | 107° |
| 2026-04-25 20:09 | 55.51911 | -2.45172 | 27241 ft | 436 kts | 107° |
| 2026-04-25 20:09 | 55.51102 | -2.40010 | 27741 ft | 438 kts | 107° |
| 2026-04-25 20:09 | 55.50284 | -2.34809 | 28236 ft | 441 kts | 107° |
| 2026-04-25 20:10 | 55.49740 | -2.31360 | 28544 ft | 443 kts | 107° |
| 2026-04-25 20:10 | 55.48629 | -2.24332 | 29156 ft | 446 kts | 107° |
| 2026-04-25 20:10 | 55.47792 | -2.19053 | 29605 ft | 448 kts | 107° |
| 2026-04-25 20:10 | 55.47235 | -2.15549 | 29894 ft | 450 kts | 107° |
| 2026-04-25 20:11 | 55.46386 | -2.10225 | 30313 ft | 453 kts | 107° |
| 2026-04-25 20:11 | 55.45530 | -2.04870 | 30696 ft | 455 kts | 107° |
| 2026-04-25 20:11 | 55.44669 | -1.99508 | 31088 ft | 456 kts | 107° |
| 2026-04-25 20:11 | 55.43508 | -1.92295 | 31626 ft | 458 kts | 108° |
| 2026-04-25 20:12 | 55.42931 | -1.88723 | 31950 ft | 457 kts | 108° |
| 2026-04-25 20:12 | 55.42062 | -1.83354 | 32457 ft | 455 kts | 108° |
| 2026-04-25 20:12 | 55.41193 | -1.78006 | 32963 ft | 454 kts | 108° |
| 2026-04-25 20:12 | 55.40607 | -1.74407 | 33286 ft | 453 kts | 108° |
| 2026-04-25 20:13 | 55.39456 | -1.67365 | 33928 ft | 451 kts | 108° |
| 2026-04-25 20:13 | 55.38588 | -1.62072 | 34386 ft | 449 kts | 108° |
| 2026-04-25 20:13 | 55.37723 | -1.56809 | 34732 ft | 449 kts | 107° |
| 2026-04-25 20:13 | 55.36852 | -1.51538 | 35052 ft | 449 kts | 107° |
| 2026-04-25 20:14 | 55.35981 | -1.46274 | 35369 ft | 449 kts | 107° |
| 2026-04-25 20:14 | 55.35103 | -1.40991 | 35679 ft | 450 kts | 107° |
| 2026-04-25 20:14 | 55.34236 | -1.35788 | 35984 ft | 450 kts | 107° |
| 2026-04-25 20:14 | 55.33355 | -1.30515 | 36262 ft | 450 kts | 107° |
| 2026-04-25 20:15 | 55.32471 | -1.25241 | 36552 ft | 450 kts | 107° |
| 2026-04-25 20:15 | 55.31585 | -1.19968 | 36833 ft | 450 kts | 107° |
| 2026-04-25 20:15 | 55.30696 | -1.14695 | 37117 ft | 450 kts | 107° |
| 2026-04-25 20:15 | 55.29842 | -1.09647 | 37381 ft | 450 kts | 107° |
| 2026-04-25 20:16 | 55.28923 | -1.04226 | 37656 ft | 451 kts | 107° |
| 2026-04-25 20:16 | 55.28027 | -0.98957 | 37921 ft | 451 kts | 107° |
| 2026-04-25 20:16 | 55.27130 | -0.93698 | 38165 ft | 451 kts | 107° |
| 2026-04-25 20:16 | 55.26228 | -0.88426 | 38409 ft | 451 kts | 107° |
| 2026-04-25 20:17 | 55.25324 | -0.83159 | 38658 ft | 451 kts | 107° |
| 2026-04-25 20:17 | 55.24418 | -0.77895 | 38884 ft | 451 kts | 107° |
| 2026-04-25 20:17 | 55.23510 | -0.72637 | 39093 ft | 451 kts | 107° |
| 2026-04-25 20:17 | 55.22601 | -0.67384 | 39260 ft | 451 kts | 107° |
| 2026-04-25 20:18 | 55.20772 | -0.56861 | 39311 ft | 451 kts | 107° |
| 2026-04-25 20:18 | 55.18941 | -0.46390 | 39308 ft | 450 kts | 107° |
| 2026-04-25 20:19 | 55.17113 | -0.35993 | 39309 ft | 450 kts | 107° |
| 2026-04-25 20:19 | 55.15261 | -0.25522 | 39309 ft | 450 kts | 107° |
| 2026-04-25 20:20 | 55.13398 | -0.15053 | 39313 ft | 451 kts | 107° |
| 2026-04-25 20:20 | 55.11528 | -0.04599 | 39312 ft | 451 kts | 107° |
| 2026-04-25 20:21 | 55.09646 | 0.05856 | 39313 ft | 451 kts | 108° |
| 2026-04-25 20:21 | 55.07756 | 0.16302 | 39315 ft | 451 kts | 108° |
| 2026-04-25 20:22 | 55.06169 | 0.25026 | 39307 ft | 451 kts | 108° |
| 2026-04-25 20:22 | 55.03945 | 0.37179 | 39309 ft | 452 kts | 108° |
| 2026-04-25 20:23 | 55.02096 | 0.47229 | 39311 ft | 452 kts | 108° |
| 2026-04-25 20:23 | 55.00168 | 0.57645 | 39312 ft | 452 kts | 108° |
| 2026-04-25 20:24 | 54.98233 | 0.68045 | 39304 ft | 452 kts | 108° |
| 2026-04-25 20:24 | 54.96287 | 0.78441 | 39312 ft | 452 kts | 108° |
| 2026-04-25 20:25 | 54.94334 | 0.88822 | 39310 ft | 451 kts | 108° |
| 2026-04-25 20:25 | 54.92374 | 0.99181 | 39306 ft | 451 kts | 108° |
| 2026-04-25 20:26 | 54.90604 | 1.08490 | 39306 ft | 451 kts | 108° |
| 2026-04-25 20:26 | 54.88582 | 1.19066 | 39298 ft | 451 kts | 108° |
| 2026-04-25 20:27 | 54.86594 | 1.29408 | 39300 ft | 452 kts | 108° |
| 2026-04-25 20:27 | 54.84726 | 1.39074 | 39304 ft | 452 kts | 108° |
| 2026-04-25 20:28 | 54.82720 | 1.49402 | 39305 ft | 452 kts | 108° |
| 2026-04-25 20:28 | 54.80705 | 1.59720 | 39294 ft | 452 kts | 108° |
| 2026-04-25 20:29 | 54.78696 | 1.69955 | 39298 ft | 452 kts | 108° |
| 2026-04-25 20:29 | 54.76662 | 1.80260 | 39293 ft | 452 kts | 108° |
| 2026-04-25 20:30 | 54.74621 | 1.90548 | 39294 ft | 452 kts | 108° |
| 2026-04-25 20:30 | 54.72570 | 2.00829 | 39295 ft | 452 kts | 109° |
| 2026-04-25 20:31 | 54.70511 | 2.11103 | 39303 ft | 452 kts | 109° |
| 2026-04-25 20:31 | 54.68443 | 2.21360 | 39294 ft | 452 kts | 109° |
| 2026-04-25 20:32 | 54.66365 | 2.31620 | 39287 ft | 452 kts | 109° |
| 2026-04-25 20:32 | 54.64279 | 2.41861 | 39290 ft | 452 kts | 109° |
| 2026-04-25 20:33 | 54.62185 | 2.52091 | 39284 ft | 452 kts | 109° |
| 2026-04-25 20:33 | 54.60439 | 2.60581 | 39294 ft | 452 kts | 109° |
| 2026-04-25 20:34 | 54.57972 | 2.72512 | 39296 ft | 452 kts | 109° |
| 2026-04-25 20:34 | 54.55851 | 2.82714 | 39282 ft | 452 kts | 109° |
| 2026-04-25 20:35 | 54.53725 | 2.92892 | 39292 ft | 452 kts | 109° |
| 2026-04-25 20:35 | 54.51589 | 3.03065 | 39279 ft | 452 kts | 109° |
| 2026-04-25 20:36 | 54.49446 | 3.13217 | 39281 ft | 451 kts | 109° |
| 2026-04-25 20:36 | 54.47296 | 3.23355 | 39286 ft | 451 kts | 109° |
| 2026-04-25 20:37 | 54.45136 | 3.33484 | 39276 ft | 451 kts | 109° |
| 2026-04-25 20:37 | 54.43117 | 3.42912 | 39285 ft | 451 kts | 109° |
| 2026-04-25 20:38 | 54.40943 | 3.53016 | 39279 ft | 451 kts | 109° |
| 2026-04-25 20:38 | 54.38392 | 3.62860 | 39277 ft | 451 kts | 114° |
| 2026-04-25 20:39 | 54.35750 | 3.72616 | 39273 ft | 451 kts | 114° |
| 2026-04-25 20:39 | 54.33563 | 3.80727 | 39269 ft | 451 kts | 114° |
| 2026-04-25 20:40 | 54.30496 | 3.92086 | 39265 ft | 451 kts | 114° |
| 2026-04-25 20:40 | 54.27855 | 4.01823 | 39262 ft | 451 kts | 114° |
| 2026-04-25 20:41 | 54.25339 | 4.11038 | 39259 ft | 451 kts | 114° |
| 2026-04-25 20:41 | 54.22673 | 4.20754 | 39263 ft | 451 kts | 114° |
| 2026-04-25 20:42 | 54.20000 | 4.30457 | 39260 ft | 451 kts | 114° |
| 2026-04-25 20:42 | 54.17318 | 4.40148 | 39253 ft | 452 kts | 114° |
| 2026-04-25 20:43 | 54.14626 | 4.49834 | 39273 ft | 452 kts | 114° |
| 2026-04-25 20:43 | 54.11941 | 4.59453 | 39260 ft | 452 kts | 114° |
| 2026-04-25 20:44 | 54.09231 | 4.69125 | 39269 ft | 452 kts | 114° |
| 2026-04-25 20:44 | 54.06513 | 4.78785 | 39253 ft | 453 kts | 114° |
| 2026-04-25 20:45 | 54.03781 | 4.88451 | 39265 ft | 453 kts | 114° |
| 2026-04-25 20:45 | 54.01299 | 4.97199 | 39269 ft | 453 kts | 114° |
| 2026-04-25 20:46 | 53.98551 | 5.06848 | 39263 ft | 453 kts | 114° |
| 2026-04-25 20:46 | 53.95799 | 5.16471 | 39249 ft | 453 kts | 114° |
| 2026-04-25 20:47 | 53.92993 | 5.26067 | 39244 ft | 454 kts | 116° |
| 2026-04-25 20:47 | 53.90064 | 5.35555 | 39243 ft | 454 kts | 116° |
| 2026-04-25 20:48 | 53.87151 | 5.45053 | 39243 ft | 454 kts | 116° |
| 2026-04-25 20:48 | 53.84248 | 5.54560 | 39240 ft | 455 kts | 116° |
| 2026-04-25 20:49 | 53.81338 | 5.64062 | 39233 ft | 455 kts | 116° |
| 2026-04-25 20:49 | 53.78418 | 5.73559 | 39230 ft | 455 kts | 116° |
| 2026-04-25 20:50 | 53.75483 | 5.83045 | 39223 ft | 456 kts | 116° |
| 2026-04-25 20:50 | 53.72533 | 5.92534 | 39224 ft | 456 kts | 116° |
| 2026-04-25 20:51 | 53.69574 | 6.02013 | 39226 ft | 457 kts | 116° |
| 2026-04-25 20:51 | 53.66603 | 6.11492 | 39227 ft | 457 kts | 116° |
| 2026-04-25 20:52 | 53.64632 | 6.17761 | 39227 ft | 457 kts | 116° |
| 2026-04-25 20:52 | 53.60632 | 6.30434 | 39228 ft | 458 kts | 116° |
| 2026-04-25 20:53 | 53.57632 | 6.39894 | 39224 ft | 459 kts | 116° |
| 2026-04-25 20:53 | 53.54619 | 6.49358 | 39225 ft | 459 kts | 116° |
| 2026-04-25 20:54 | 53.51598 | 6.58811 | 39224 ft | 460 kts | 116° |
| 2026-04-25 20:54 | 53.48563 | 6.68268 | 39221 ft | 460 kts | 116° |
| 2026-04-25 20:55 | 53.45683 | 6.77213 | 39217 ft | 460 kts | 116° |
| 2026-04-25 20:55 | 53.42633 | 6.86647 | 39212 ft | 461 kts | 116° |
| 2026-04-25 20:56 | 53.39568 | 6.96091 | 39209 ft | 461 kts | 116° |
| 2026-04-25 20:56 | 53.36488 | 7.05545 | 39210 ft | 462 kts | 117° |
| 2026-04-25 20:57 | 53.33442 | 7.14860 | 39209 ft | 462 kts | 117° |
| 2026-04-25 20:57 | 53.30846 | 7.22769 | 39211 ft | 463 kts | 117° |
| 2026-04-25 20:58 | 53.27759 | 7.32142 | 39209 ft | 463 kts | 117° |
| 2026-04-25 20:58 | 53.24642 | 7.41570 | 39204 ft | 464 kts | 117° |
| 2026-04-25 20:59 | 53.21512 | 7.51000 | 39198 ft | 465 kts | 117° |
| 2026-04-25 20:59 | 53.18374 | 7.60420 | 39189 ft | 465 kts | 117° |
| 2026-04-25 21:00 | 53.15753 | 7.68257 | 39185 ft | 466 kts | 117° |
| 2026-04-25 21:01 | 53.10474 | 7.83971 | 39181 ft | 466 kts | 117° |
| 2026-04-25 21:01 | 53.07294 | 7.93389 | 39177 ft | 467 kts | 117° |
| 2026-04-25 21:02 | 53.04100 | 8.02813 | 39178 ft | 468 kts | 117° |
| 2026-04-25 21:02 | 53.00896 | 8.12230 | 39171 ft | 469 kts | 117° |
| 2026-04-25 21:03 | 52.97700 | 8.21587 | 39172 ft | 469 kts | 117° |
| 2026-04-25 21:03 | 52.94450 | 8.31069 | 39171 ft | 470 kts | 117° |
| 2026-04-25 21:04 | 52.92090 | 8.37930 | 39166 ft | 471 kts | 117° |
| 2026-04-25 21:04 | 52.89084 | 8.46640 | 39170 ft | 472 kts | 118° |
| 2026-04-25 21:05 | 52.85813 | 8.56087 | 39174 ft | 473 kts | 118° |
| 2026-04-25 21:05 | 52.82529 | 8.65532 | 39173 ft | 474 kts | 118° |
| 2026-04-25 21:06 | 52.79238 | 8.74966 | 39168 ft | 474 kts | 118° |
| 2026-04-25 21:06 | 52.75939 | 8.84384 | 39161 ft | 474 kts | 118° |
| 2026-04-25 21:07 | 52.72622 | 8.93819 | 39155 ft | 475 kts | 118° |
| 2026-04-25 21:07 | 52.69297 | 9.03242 | 39154 ft | 476 kts | 118° |
| 2026-04-25 21:08 | 52.65952 | 9.12684 | 39156 ft | 477 kts | 118° |
| 2026-04-25 21:08 | 52.62599 | 9.22115 | 39156 ft | 478 kts | 118° |
| 2026-04-25 21:09 | 52.57570 | 9.36192 | 39159 ft | 479 kts | 119° |
| 2026-04-25 21:09 | 52.54186 | 9.45619 | 39159 ft | 479 kts | 119° |
| 2026-04-25 21:10 | 52.50788 | 9.55050 | 39164 ft | 480 kts | 119° |
| 2026-04-25 21:10 | 52.47620 | 9.63813 | 39163 ft | 480 kts | 119° |
| 2026-04-25 21:11 | 52.44196 | 9.73246 | 39163 ft | 481 kts | 119° |
| 2026-04-25 21:11 | 52.40767 | 9.82660 | 39160 ft | 481 kts | 119° |
| 2026-04-25 21:12 | 52.37327 | 9.92067 | 39158 ft | 481 kts | 119° |
| 2026-04-25 21:12 | 52.34463 | 9.99875 | 39151 ft | 482 kts | 119° |
| 2026-04-25 21:13 | 52.31378 | 10.08257 | 39140 ft | 482 kts | 120° |
| 2026-04-25 21:13 | 52.27884 | 10.17717 | 39135 ft | 482 kts | 120° |
| 2026-04-25 21:14 | 52.24566 | 10.26666 | 39136 ft | 483 kts | 120° |
| 2026-04-25 21:14 | 52.21076 | 10.36046 | 39132 ft | 483 kts | 120° |
| 2026-04-25 21:15 | 52.17583 | 10.45401 | 39132 ft | 484 kts | 120° |
| 2026-04-25 21:15 | 52.14082 | 10.54741 | 39132 ft | 484 kts | 120° |
| 2026-04-25 21:16 | 52.10566 | 10.64086 | 39131 ft | 484 kts | 120° |
| 2026-04-25 21:16 | 52.07041 | 10.73422 | 39126 ft | 484 kts | 120° |
| 2026-04-25 21:17 | 52.03508 | 10.82744 | 39123 ft | 484 kts | 120° |
| 2026-04-25 21:17 | 52.00566 | 10.90482 | 39116 ft | 485 kts | 120° |
| 2026-04-25 21:18 | 51.96998 | 10.99833 | 39107 ft | 485 kts | 120° |
| 2026-04-25 21:18 | 51.93438 | 11.09133 | 39104 ft | 485 kts | 120° |
| 2026-04-25 21:19 | 51.89869 | 11.18418 | 39101 ft | 486 kts | 120° |
| 2026-04-25 21:19 | 51.86301 | 11.27668 | 38792 ft | 482 kts | 120° |
| 2026-04-25 21:20 | 51.84528 | 11.32251 | 38276 ft | 480 kts | 120° |
| 2026-04-25 21:20 | 51.83356 | 11.35276 | 37890 ft | 478 kts | 120° |
| 2026-04-25 21:20 | 51.81003 | 11.41337 | 37140 ft | 474 kts | 120° |
| 2026-04-25 21:20 | 51.79281 | 11.45767 | 36612 ft | 471 kts | 120° |
| 2026-04-25 21:21 | 51.77541 | 11.50231 | 36093 ft | 468 kts | 120° |
| 2026-04-25 21:21 | 51.75812 | 11.54661 | 35584 ft | 465 kts | 120° |
| 2026-04-25 21:21 | 51.74093 | 11.59057 | 35088 ft | 462 kts | 120° |
| 2026-04-25 21:21 | 51.72379 | 11.63433 | 34444 ft | 463 kts | 120° |
| 2026-04-25 21:22 | 51.70653 | 11.67837 | 33518 ft | 470 kts | 120° |
| 2026-04-25 21:22 | 51.68880 | 11.72356 | 32485 ft | 478 kts | 120° |
| 2026-04-25 21:22 | 51.67093 | 11.76902 | 31447 ft | 487 kts | 120° |
| 2026-04-25 21:22 | 51.65491 | 11.80969 | 30528 ft | 494 kts | 120° |
| 2026-04-25 21:23 | 51.63628 | 11.85685 | 29413 ft | 501 kts | 121° |
| 2026-04-25 21:23 | 51.61762 | 11.90395 | 28690 ft | 497 kts | 121° |
| 2026-04-25 21:23 | 51.59908 | 11.95067 | 28039 ft | 492 kts | 121° |
| 2026-04-25 21:23 | 51.58077 | 11.99672 | 27400 ft | 488 kts | 121° |
| 2026-04-25 21:24 | 51.56255 | 12.04250 | 26755 ft | 483 kts | 121° |
| 2026-04-25 21:24 | 51.54451 | 12.08778 | 26128 ft | 479 kts | 121° |
| 2026-04-25 21:24 | 51.52661 | 12.13264 | 25522 ft | 475 kts | 121° |
| 2026-04-25 21:24 | 51.50881 | 12.17716 | 24943 ft | 471 kts | 121° |
| 2026-04-25 21:25 | 51.49114 | 12.22127 | 24362 ft | 468 kts | 121° |
| 2026-04-25 21:25 | 51.47360 | 12.26500 | 23777 ft | 465 kts | 121° |
| 2026-04-25 21:25 | 51.45619 | 12.30835 | 23136 ft | 460 kts | 121° |
| 2026-04-25 21:25 | 51.43890 | 12.35133 | 22482 ft | 457 kts | 121° |
| 2026-04-25 21:26 | 51.42175 | 12.39387 | 21867 ft | 452 kts | 121° |
| 2026-04-25 21:26 | 51.40473 | 12.43602 | 21245 ft | 449 kts | 121° |
| 2026-04-25 21:26 | 51.38784 | 12.47779 | 20629 ft | 445 kts | 121° |
| 2026-04-25 21:26 | 51.37108 | 12.51917 | 20044 ft | 441 kts | 121° |
| 2026-04-25 21:27 | 51.35442 | 12.56025 | 19461 ft | 438 kts | 121° |
| 2026-04-25 21:27 | 51.33788 | 12.60096 | 18882 ft | 435 kts | 122° |
| 2026-04-25 21:27 | 51.32198 | 12.64003 | 18322 ft | 432 kts | 122° |
| 2026-04-25 21:27 | 51.30512 | 12.68138 | 17694 ft | 428 kts | 122° |
| 2026-04-25 21:28 | 51.28896 | 12.72096 | 17205 ft | 422 kts | 122° |
| 2026-04-25 21:28 | 51.27292 | 12.76017 | 17080 ft | 424 kts | 122° |
| 2026-04-25 21:28 | 51.25675 | 12.79966 | 17061 ft | 425 kts | 122° |
| 2026-04-25 21:28 | 51.24054 | 12.83917 | 17058 ft | 425 kts | 122° |
| 2026-04-25 21:29 | 51.22435 | 12.87859 | 17057 ft | 425 kts | 122° |
| 2026-04-25 21:29 | 51.20813 | 12.91801 | 17057 ft | 425 kts | 122° |
| 2026-04-25 21:29 | 51.19191 | 12.95735 | 17054 ft | 425 kts | 122° |
| 2026-04-25 21:29 | 51.17568 | 12.99667 | 17054 ft | 425 kts | 122° |
| 2026-04-25 21:30 | 51.16490 | 13.02276 | 17053 ft | 425 kts | 122° |
| 2026-04-25 21:30 | 51.14335 | 13.07482 | 17052 ft | 425 kts | 122° |
| 2026-04-25 21:30 | 51.12690 | 13.11449 | 17055 ft | 425 kts | 122° |
| 2026-04-25 21:30 | 51.11609 | 13.14052 | 17055 ft | 425 kts | 122° |
| 2026-04-25 21:31 | 51.09454 | 13.19236 | 17053 ft | 425 kts | 123° |
| 2026-04-25 21:31 | 51.07817 | 13.23166 | 17050 ft | 425 kts | 123° |
| 2026-04-25 21:31 | 51.06180 | 13.27088 | 17046 ft | 426 kts | 123° |
| 2026-04-25 21:31 | 51.04544 | 13.31005 | 17044 ft | 425 kts | 123° |
| 2026-04-25 21:32 | 51.02911 | 13.34906 | 17043 ft | 425 kts | 123° |
| 2026-04-25 21:32 | 51.01270 | 13.38822 | 17040 ft | 425 kts | 123° |
| 2026-04-25 21:32 | 50.99631 | 13.42728 | 17037 ft | 425 kts | 123° |
| 2026-04-25 21:32 | 50.98011 | 13.46584 | 17034 ft | 425 kts | 123° |
| 2026-04-25 21:33 | 50.96415 | 13.50376 | 17032 ft | 425 kts | 123° |
| 2026-04-25 21:33 | 50.94769 | 13.54284 | 17031 ft | 425 kts | 123° |
| 2026-04-25 21:33 | 50.93128 | 13.58176 | 17032 ft | 425 kts | 123° |
| 2026-04-25 21:33 | 50.91487 | 13.62064 | 17032 ft | 425 kts | 123° |
| 2026-04-25 21:34 | 50.89843 | 13.65956 | 17033 ft | 425 kts | 123° |
| 2026-04-25 21:34 | 50.88196 | 13.69848 | 17031 ft | 425 kts | 123° |
| 2026-04-25 21:34 | 50.86549 | 13.73735 | 17026 ft | 425 kts | 123° |
| 2026-04-25 21:34 | 50.84904 | 13.77611 | 17036 ft | 424 kts | 123° |
| 2026-04-25 21:35 | 50.83264 | 13.81470 | 17031 ft | 423 kts | 123° |
| 2026-04-25 21:35 | 50.81619 | 13.85335 | 17030 ft | 423 kts | 123° |
| 2026-04-25 21:35 | 50.79978 | 13.89192 | 17028 ft | 422 kts | 123° |
| 2026-04-25 21:35 | 50.78473 | 13.93172 | 17025 ft | 422 kts | 118° |
| 2026-04-25 21:36 | 50.77076 | 13.97236 | 17022 ft | 421 kts | 117° |
| 2026-04-25 21:36 | 50.75697 | 14.01308 | 17016 ft | 421 kts | 117° |
| 2026-04-25 21:36 | 50.74300 | 14.05381 | 17016 ft | 421 kts | 118° |
| 2026-04-25 21:36 | 50.72892 | 14.09422 | 17018 ft | 419 kts | 118° |
| 2026-04-25 21:37 | 50.71476 | 14.13444 | 17015 ft | 419 kts | 118° |
| 2026-04-25 21:37 | 50.71015 | 14.14746 | 17016 ft | 419 kts | 118° |
| 2026-04-25 21:37 | 50.68629 | 14.21465 | 17017 ft | 420 kts | 119° |
| 2026-04-25 21:37 | 50.67217 | 14.25429 | 17010 ft | 419 kts | 119° |
| 2026-04-25 21:38 | 50.65787 | 14.29442 | 17010 ft | 420 kts | 119° |
| 2026-04-25 21:38 | 50.64375 | 14.33397 | 17012 ft | 420 kts | 119° |
| 2026-04-25 21:38 | 50.62944 | 14.37399 | 17007 ft | 419 kts | 119° |
| 2026-04-25 21:38 | 50.61508 | 14.41410 | 17006 ft | 420 kts | 119° |
| 2026-04-25 21:39 | 50.60024 | 14.45380 | 17006 ft | 420 kts | 126° |
| 2026-04-25 21:39 | 50.58037 | 14.48684 | 17004 ft | 416 kts | 145° |
| 2026-04-25 21:39 | 50.55545 | 14.50921 | 17005 ft | 409 kts | 164° |
| 2026-04-25 21:39 | 50.52819 | 14.51879 | 17001 ft | 398 kts | 182° |
| 2026-04-25 21:40 | 50.50083 | 14.51953 | 16809 ft | 389 kts | 187° |
| 2026-04-25 21:40 | 50.47384 | 14.51913 | 16148 ft | 386 kts | 186° |
| 2026-04-25 21:40 | 50.44700 | 14.52010 | 15380 ft | 383 kts | 184° |
| 2026-04-25 21:40 | 50.42067 | 14.52244 | 14593 ft | 378 kts | 185° |
| 2026-04-25 21:41 | 50.39522 | 14.51765 | 13784 ft | 358 kts | 205° |
| 2026-04-25 21:41 | 50.37406 | 14.50068 | 12914 ft | 337 kts | 225° |
| 2026-04-25 21:41 | 50.35904 | 14.47417 | 12064 ft | 319 kts | 245° |
| 2026-04-25 21:41 | 50.34954 | 14.44277 | 11195 ft | 312 kts | 251° |
| 2026-04-25 21:42 | 50.34075 | 14.41199 | 10343 ft | 317 kts | 251° |
| 2026-04-25 21:42 | 50.33151 | 14.37993 | 9198 ft | 330 kts | 250° |
| 2026-04-25 21:42 | 50.32186 | 14.34707 | 8322 ft | 328 kts | 250° |
| 2026-04-25 21:42 | 50.31223 | 14.31624 | 8061 ft | 307 kts | 243° |
| 2026-04-25 21:43 | 50.29816 | 14.29225 | 7831 ft | 296 kts | 221° |
| 2026-04-25 21:43 | 50.27963 | 14.27927 | 7609 ft | 290 kts | 198° |
| 2026-04-25 21:43 | 50.25948 | 14.27877 | 7111 ft | 295 kts | 172° |
| 2026-04-25 21:43 | 50.24016 | 14.29052 | 6539 ft | 301 kts | 153° |
| 2026-04-25 21:44 | 50.22443 | 14.31201 | 6151 ft | 303 kts | 126° |
| 2026-04-25 21:44 | 50.21775 | 14.33146 | 5909 ft | 300 kts | 108° |
| 2026-04-25 21:44 | 50.22105 | 14.39195 | 5094 ft | 279 kts | 52° |
| 2026-04-25 21:45 | 50.23358 | 14.41411 | 4698 ft | 270 kts | 36° |
| 2026-04-25 21:45 | 50.24288 | 14.42763 | 4422 ft | 270 kts | 38° |
| 2026-04-25 21:45 | 50.25904 | 14.45704 | 4076 ft | 268 kts | 49° |
| 2026-04-25 21:45 | 50.26910 | 14.48207 | 3997 ft | 275 kts | 54° |
| 2026-04-25 21:46 | 50.27619 | 14.50998 | 3995 ft | 282 kts | 77° |
| 2026-04-25 21:46 | 50.27503 | 14.54000 | 3994 ft | 275 kts | 106° |
| 2026-04-25 21:46 | 50.26573 | 14.56475 | 3997 ft | 267 kts | 136° |
| 2026-04-25 21:46 | 50.25003 | 14.58058 | 3997 ft | 264 kts | 161° |
| 2026-04-25 21:47 | 50.23265 | 14.58773 | 3997 ft | 254 kts | 186° |
| 2026-04-25 21:47 | 50.21634 | 14.58053 | 4002 ft | 237 kts | 217° |
| 2026-04-25 21:47 | 50.20145 | 14.57065 | 4005 ft | 237 kts | 199° |
| 2026-04-25 21:47 | 50.18495 | 14.56527 | 3999 ft | 243 kts | 198° |
| 2026-04-25 21:48 | 50.16846 | 14.56003 | 3998 ft | 241 kts | 198° |
| 2026-04-25 21:48 | 50.15204 | 14.55474 | 3999 ft | 241 kts | 198° |
| 2026-04-25 21:48 | 50.13545 | 14.55187 | 3998 ft | 246 kts | 178° |
| 2026-04-25 21:48 | 50.11915 | 14.56104 | 4006 ft | 255 kts | 153° |
| 2026-04-25 21:49 | 50.10412 | 14.57582 | 4001 ft | 255 kts | 148° |
| 2026-04-25 21:49 | 50.08968 | 14.59124 | 4010 ft | 256 kts | 148° |
| 2026-04-25 21:49 | 50.07484 | 14.60704 | 4303 ft | 259 kts | 148° |
| 2026-04-25 21:49 | 50.05981 | 14.62268 | 4815 ft | 259 kts | 149° |
| 2026-04-25 21:50 | 50.04479 | 14.63803 | 4974 ft | 259 kts | 150° |
| 2026-04-25 21:50 | 50.02947 | 14.65348 | 4999 ft | 258 kts | 150° |
| 2026-04-25 21:50 | 50.01461 | 14.66839 | 4993 ft | 258 kts | 150° |
| 2026-04-25 21:50 | 50.00002 | 14.68460 | 4993 ft | 259 kts | 140° |
| 2026-04-25 21:51 | 49.98806 | 14.70566 | 4995 ft | 261 kts | 127° |
| 2026-04-25 21:51 | 49.97719 | 14.72828 | 4995 ft | 261 kts | 128° |
| 2026-04-25 21:51 | 49.96506 | 14.74902 | 4994 ft | 258 kts | 148° |
| 2026-04-25 21:51 | 49.94884 | 14.75907 | 4993 ft | 249 kts | 179° |
| 2026-04-25 21:52 | 49.93234 | 14.75555 | 4994 ft | 235 kts | 211° |
| 2026-04-25 21:52 | 49.91998 | 14.74049 | 4997 ft | 226 kts | 234° |
| 2026-04-25 21:52 | 49.90941 | 14.72244 | 4986 ft | 225 kts | 234° |
| 2026-04-25 21:52 | 49.90159 | 14.70247 | 4801 ft | 212 kts | 262° |
| 2026-04-25 21:53 | 49.90170 | 14.68101 | 4665 ft | 190 kts | 287° |
| 2026-04-25 21:53 | 49.90652 | 14.66305 | 4551 ft | 172 kts | 301° |
| 2026-04-25 21:53 | 49.91265 | 14.64843 | 4499 ft | 151 kts | 305° |
| 2026-04-25 21:53 | 49.91860 | 14.63593 | 4396 ft | 137 kts | 307° |
| 2026-04-25 21:54 | 49.92409 | 14.62466 | 4311 ft | 124 kts | 307° |
| 2026-04-25 21:54 | 49.92914 | 14.61428 | 4130 ft | 119 kts | 307° |
| 2026-04-25 21:54 | 49.93402 | 14.60426 | 3991 ft | 116 kts | 307° |
| 2026-04-25 21:54 | 49.93901 | 14.59397 | 3994 ft | 119 kts | 307° |
| 2026-04-25 21:55 | 49.94399 | 14.58374 | 4000 ft | 119 kts | 307° |
| 2026-04-25 21:55 | 49.94898 | 14.57346 | 3991 ft | 118 kts | 307° |
| 2026-04-25 21:55 | 49.95396 | 14.56322 | 3997 ft | 121 kts | 307° |
| 2026-04-25 21:55 | 49.95897 | 14.55290 | 3994 ft | 118 kts | 307° |
| 2026-04-25 21:56 | 49.96401 | 14.54254 | 3995 ft | 121 kts | 307° |
| 2026-04-25 21:56 | 49.96731 | 14.53576 | 3993 ft | 118 kts | 307° |
| 2026-04-25 21:56 | 49.97398 | 14.52201 | 4002 ft | 122 kts | 307° |
| 2026-04-25 21:56 | 49.97904 | 14.51160 | 3998 ft | 120 kts | 307° |
| 2026-04-25 21:57 | 49.98407 | 14.50125 | 3998 ft | 120 kts | 307° |
| 2026-04-25 21:57 | 49.98910 | 14.49086 | 3998 ft | 120 kts | 307° |
| 2026-04-25 21:57 | 49.99415 | 14.48046 | 4002 ft | 121 kts | 307° |
| 2026-04-25 21:57 | 49.99920 | 14.47006 | 3997 ft | 120 kts | 307° |
| 2026-04-25 21:58 | 50.00421 | 14.45973 | 3994 ft | 120 kts | 307° |
| 2026-04-25 21:58 | 50.00922 | 14.44941 | 3915 ft | 119 kts | 308° |
| 2026-04-25 21:58 | 50.01419 | 14.43915 | 3754 ft | 119 kts | 308° |
| 2026-04-25 21:58 | 50.01917 | 14.42886 | 3598 ft | 119 kts | 308° |
| 2026-04-25 21:59 | 50.02418 | 14.41854 | 3443 ft | 120 kts | 308° |
| 2026-04-25 21:59 | 50.02912 | 14.40834 | 3285 ft | 120 kts | 308° |
| 2026-04-25 21:59 | 50.03411 | 14.39804 | 3103 ft | 120 kts | 309° |
| 2026-04-25 22:00 | 50.04380 | 14.37804 | 2807 ft | 113 kts | 308° |
| 2026-04-25 22:00 | 50.04851 | 14.36830 | 2661 ft | 112 kts | 308° |
| 2026-04-25 22:00 | 50.05318 | 14.35866 | 2504 ft | 111 kts | 308° |
| 2026-04-25 22:00 | 50.05781 | 14.34910 | 2356 ft | 110 kts | 307° |
| 2026-04-25 22:01 | 50.06247 | 14.33943 | 2202 ft | 112 kts | 307° |
| 2026-04-25 22:01 | 50.06715 | 14.32980 | 2060 ft | 113 kts | 307° |
| 2026-04-25 22:01 | 50.07198 | 14.31979 | 1825 ft | 117 kts | 306° |
| 2026-04-25 22:01 | 50.07530 | 14.31291 | 1739 ft | 118 kts | 306° |
| 2026-04-25 22:02 | 50.08200 | 14.29925 | 1535 ft | 121 kts | 305° |
| 2026-04-25 22:02 | 50.08699 | 14.28885 | 1396 ft | 120 kts | 305° |
| 2026-04-25 22:02 | 50.09200 | 14.27847 | 1261 ft | 118 kts | 305° |
| 2026-04-25 22:02 | 50.09645 | 14.26913 | 1211 ft | 90 kts | 309° |
| 2026-04-25 22:03 | 50.09935 | 14.26321 | 1194 ft | 50 kts | 308° |
| 2026-04-25 22:03 | 50.10107 | 14.25968 | 1186 ft | 44 kts | 306° |
| 2026-04-25 22:03 | 50.10289 | 14.25690 | 1184 ft | 28 kts | 336° |
| 2026-04-25 22:03 | 50.10425 | 14.25659 | 1182 ft | 0 kts | 9° |
| 2026-04-25 22:04 | 50.10426 | 14.25660 | 1182 ft | 1 kts | 9° |
| 2026-04-25 22:04 | 50.10486 | 14.25703 | 1183 ft | 13 kts | 62° |
| 2026-04-25 22:04 | 50.10504 | 14.25872 | 1185 ft | 18 kts | 80° |
| 2026-04-25 22:04 | 50.10520 | 14.26004 | 1188 ft | 11 kts | 78° |
| 2026-04-25 22:05 | 50.10557 | 14.26124 | 1186 ft | 11 kts | 46° |
| 2026-04-25 22:05 | 50.10595 | 14.26201 | 1184 ft | 0 kts | 24° |